createdAt,value
2022-12-15T00:02:05.710Z,100671.69
2022-12-15T00:04:50.840Z,100670.50
2022-12-15T00:07:35.776Z,100667.66
2022-12-15T00:10:20.607Z,100669.13
2022-12-15T00:13:05.483Z,100665.13
2022-12-15T00:15:50.253Z,100665.97
2022-12-15T00:18:35.177Z,100678.91
2022-12-15T00:21:19.959Z,100677.00
2022-12-15T00:24:04.985Z,100672.88
2022-12-15T00:26:50.258Z,100665.97
2022-12-15T00:29:35.116Z,100663.34
2022-12-15T00:32:20.031Z,100671.75
2022-12-15T00:35:04.869Z,100672.94
2022-12-15T00:37:49.885Z,100677.31
2022-12-15T00:40:17.482Z,100675.56
2022-12-15T00:42:45.020Z,100678.91
2022-12-15T00:45:17.265Z,100689.25
2022-12-15T00:47:43.774Z,100683.28
2022-12-15T00:50:30.769Z,100680.66
2022-12-15T00:53:16.051Z,100680.50
2022-12-15T00:56:01.062Z,100681.91
2022-12-15T00:58:46.472Z,100676.66
2022-12-15T01:01:31.585Z,100685.25
2022-12-15T01:04:16.538Z,100688.75
2022-12-15T01:07:01.693Z,100691.53
2022-12-15T01:09:46.792Z,100689.88
2022-12-15T01:12:31.757Z,100695.09
2022-12-15T01:15:16.632Z,100700.88
2022-12-15T01:18:01.583Z,100692.41
2022-12-15T01:20:32.668Z,100697.78
2022-12-15T01:23:00.252Z,100712.41
2022-12-15T01:25:29.053Z,100712.09
2022-12-15T01:27:56.675Z,100719.34
2022-12-15T01:30:26.795Z,100733.03
2022-12-15T01:32:54.647Z,100730.53
2022-12-15T01:35:22.447Z,100723.97
2022-12-15T01:37:50.370Z,100733.78
2022-12-15T01:40:37.662Z,100737.63
2022-12-15T01:43:10.610Z,100732.53
2022-12-15T01:45:58.857Z,100729.06
2022-12-15T01:48:35.238Z,100725.53
2022-12-15T01:51:11.441Z,100722.06
2022-12-15T01:53:44.454Z,100729.59
2022-12-15T01:56:12.948Z,100730.84
2022-12-15T01:58:44.522Z,100734.94
2022-12-15T02:01:12.407Z,100736.28
2022-12-15T02:03:40.776Z,100741.38
2022-12-15T02:06:09.677Z,100741.63
2022-12-15T02:08:38.501Z,100745.72
2022-12-15T02:11:05.986Z,100750.28
2022-12-15T02:13:57.055Z,100743.63
2022-12-15T02:16:35.003Z,100744.75
2022-12-15T02:19:30.884Z,100735.94
2022-12-15T02:22:51.955Z,100742.03
2022-12-15T02:25:23.737Z,100748.53
2022-12-15T02:28:08.501Z,100748.34
2022-12-15T02:30:41.890Z,100745.03
2022-12-15T02:33:21.773Z,100749.94
2022-12-15T02:36:01.660Z,100753.25
2022-12-15T02:38:37.537Z,100757.81
2022-12-15T02:41:07.547Z,100738.19
2022-12-15T02:43:39.909Z,100751.66
2022-12-15T02:46:16.697Z,100746.13
2022-12-15T02:49:01.556Z,100754.63
2022-12-15T02:52:12.185Z,100766.34
2022-12-15T02:54:47.165Z,100757.69
2022-12-15T02:57:25.900Z,100756.91
2022-12-15T03:00:00.175Z,100750.09
2022-12-15T03:02:31.769Z,100751.66
2022-12-15T03:05:00.129Z,100749.19
2022-12-15T03:07:28.849Z,100751.41
2022-12-15T03:09:58.291Z,100737.88
2022-12-15T03:12:25.813Z,100758.44
2022-12-15T03:14:53.319Z,100759.94
2022-12-15T03:17:21.258Z,100765.00
2022-12-15T03:19:49.732Z,100765.72
2022-12-15T03:22:17.546Z,100768.97
2022-12-15T03:24:45.089Z,100770.53
2022-12-15T03:27:13.093Z,100772.34
2022-12-15T03:29:40.770Z,100784.97
2022-12-15T03:32:08.565Z,100774.31
2022-12-15T03:34:36.228Z,100786.38
2022-12-15T03:37:03.812Z,100781.13
2022-12-15T03:39:31.419Z,100779.56
2022-12-15T03:41:59.065Z,100775.59
2022-12-15T03:44:26.731Z,100784.97
2022-12-15T03:46:57.232Z,100790.03
2022-12-15T03:49:28.981Z,100788.91
2022-12-15T03:51:56.651Z,100793.63
2022-12-15T03:54:24.134Z,100786.44
2022-12-15T03:56:51.663Z,100794.59
2022-12-15T03:59:20.038Z,100787.19
2022-12-15T04:01:49.201Z,100788.41
2022-12-15T04:04:16.991Z,100787.00
2022-12-15T04:06:44.510Z,100785.41
2022-12-15T04:09:12.092Z,100780.34
2022-12-15T04:11:39.573Z,100788.94
2022-12-15T04:14:07.102Z,100782.56
2022-12-15T04:16:34.711Z,100787.00
2022-12-15T04:19:19.599Z,100785.94
2022-12-15T04:21:47.119Z,100779.50
2022-12-15T04:24:32.103Z,100782.84
2022-12-15T04:27:16.758Z,100793.16
2022-12-15T04:30:01.492Z,100789.66
2022-12-15T04:32:49.996Z,100786.34
2022-12-15T04:35:35.810Z,100790.63
2022-12-15T04:38:21.033Z,100787.91
2022-12-15T04:41:06.452Z,100793.16
2022-12-15T04:43:51.256Z,100793.97
2022-12-15T04:46:36.184Z,100794.03
2022-12-15T04:49:21.348Z,100794.91
2022-12-15T04:52:06.083Z,100787.03
2022-12-15T04:54:50.872Z,100800.53
2022-12-15T04:57:35.785Z,100785.50
2022-12-15T05:00:20.841Z,100795.97
2022-12-15T05:03:05.605Z,100789.94
2022-12-15T05:05:50.483Z,100800.44
2022-12-15T05:08:35.969Z,100805.50
2022-12-15T05:11:20.738Z,100811.19
2022-12-15T05:14:05.652Z,100801.66
2022-12-15T05:16:50.478Z,100796.41
2022-12-15T05:19:35.542Z,100798.91
2022-12-15T05:22:20.317Z,100810.88
2022-12-15T05:25:05.142Z,100800.72
2022-12-15T05:27:49.832Z,100805.50
2022-12-15T05:30:35.431Z,100803.94
2022-12-15T05:33:06.989Z,100801.31
2022-12-15T05:35:34.548Z,100815.56
2022-12-15T05:38:02.184Z,100808.66
2022-12-15T05:40:29.686Z,100812.78
2022-12-15T05:43:00.041Z,100820.41
2022-12-15T05:45:28.874Z,100802.09
2022-12-15T05:47:56.910Z,100799.50
2022-12-15T05:50:24.737Z,100803.88
2022-12-15T05:52:52.286Z,100824.19
2022-12-15T05:55:20.580Z,100812.25
2022-12-15T05:57:55.313Z,100818.94
2022-12-15T06:00:22.962Z,100824.34
2022-12-15T06:02:50.606Z,100836.41
2022-12-15T06:05:18.779Z,100843.44
2022-12-15T06:07:46.450Z,100833.09
2022-12-15T06:10:13.990Z,100845.44
2022-12-15T06:12:41.618Z,100852.88
2022-12-15T06:15:09.645Z,100848.59
2022-12-15T06:17:37.273Z,100846.66
2022-12-15T06:20:05.227Z,100850.94
2022-12-15T06:22:32.768Z,100862.50
2022-12-15T06:25:00.375Z,100852.19
2022-12-15T06:27:28.003Z,100853.75
2022-12-15T06:29:55.571Z,100857.09
2022-12-15T06:32:23.200Z,100857.63
2022-12-15T06:34:50.655Z,100855.00
2022-12-15T06:37:18.184Z,100848.84
2022-12-15T06:39:46.037Z,100833.97
2022-12-15T06:42:14.611Z,100841.13
2022-12-15T06:44:42.081Z,100848.19
2022-12-15T06:47:09.642Z,100857.63
2022-12-15T06:49:37.275Z,100854.63
2022-12-15T06:52:04.853Z,100853.81
2022-12-15T06:54:32.404Z,100862.84
2022-12-15T06:56:59.904Z,100856.72
2022-12-15T06:59:27.584Z,100859.78
2022-12-15T07:01:55.294Z,100856.53
2022-12-15T07:04:23.010Z,100860.59
2022-12-15T07:06:50.615Z,100863.91
2022-12-15T07:09:18.388Z,100860.25
2022-12-15T07:11:49.314Z,100866.88
2022-12-15T07:14:16.897Z,100868.63
2022-12-15T07:16:45.607Z,100855.16
2022-12-15T07:19:13.857Z,100859.47
2022-12-15T07:21:42.408Z,100852.03
2022-12-15T07:24:12.928Z,100852.88
2022-12-15T07:26:41.807Z,100877.31
2022-12-15T07:29:09.350Z,100869.50
2022-12-15T07:31:36.953Z,100878.25
2022-12-15T07:34:04.650Z,100895.59
2022-12-15T07:36:32.401Z,100884.94
2022-12-15T07:39:01.894Z,100884.13
2022-12-15T07:41:30.205Z,100888.59
2022-12-15T07:43:59.056Z,100896.22
2022-12-15T07:46:27.392Z,100901.66
2022-12-15T07:48:54.978Z,100904.00
2022-12-15T07:51:23.267Z,100870.91
2022-12-15T07:53:51.806Z,100891.75
2022-12-15T07:56:21.463Z,100895.25
2022-12-15T07:58:49.502Z,100893.16
2022-12-15T08:01:17.918Z,100885.97
2022-12-15T08:03:46.151Z,100896.47
2022-12-15T08:06:15.841Z,100898.13
2022-12-15T08:08:49.973Z,100892.78
2022-12-15T08:11:18.556Z,100819.78
2022-12-15T08:14:03.668Z,100906.44
2022-12-15T08:16:34.666Z,100908.28
2022-12-15T08:19:02.868Z,100886.84
2022-12-15T08:21:31.328Z,100899.28
2022-12-15T08:24:00.760Z,100916.09
2022-12-15T08:26:31.286Z,100911.91
2022-12-15T08:29:48.818Z,100916.38
2022-12-15T08:31:53.052Z,100914.88
2022-12-15T08:34:21.566Z,100916.00
2022-12-15T08:36:49.142Z,100920.63
2022-12-15T08:39:16.964Z,100913.19
2022-12-15T08:41:44.544Z,100914.31
2022-12-15T08:44:12.081Z,100912.16
2022-12-15T08:46:39.883Z,100907.88
2022-12-15T08:49:08.677Z,100932.53
2022-12-15T08:51:36.306Z,100932.84
2022-12-15T08:54:03.981Z,100928.84
2022-12-15T08:56:31.640Z,100934.94
2022-12-15T08:59:02.083Z,100935.31
2022-12-15T09:01:32.269Z,100931.97
2022-12-15T09:04:01.414Z,100927.84
2022-12-15T09:06:34.410Z,100932.63
2022-12-15T09:09:04.977Z,100943.38
2022-12-15T09:11:33.412Z,100938.88
2022-12-15T09:14:01.404Z,100933.31
2022-12-15T09:16:29.182Z,100938.59
2022-12-15T09:18:59.157Z,100940.66
2022-12-15T09:21:29.171Z,100920.78
2022-12-15T09:24:01.990Z,100929.84
2022-12-15T09:26:32.137Z,100928.44
2022-12-15T09:29:00.181Z,100938.00
2022-12-15T09:31:30.676Z,100942.56
2022-12-15T09:34:00.809Z,100939.84
2022-12-15T09:36:30.320Z,100948.75
2022-12-15T09:38:57.937Z,100956.09
2022-12-15T09:41:31.435Z,100930.56
2022-12-15T09:44:04.098Z,100963.28
2022-12-15T09:47:16.254Z,100964.47
2022-12-15T09:49:59.148Z,100965.69
2022-12-15T09:52:30.048Z,100964.28
2022-12-15T09:54:59.489Z,100971.84
2022-12-15T09:57:37.940Z,100984.66
2022-12-15T10:00:07.361Z,100983.44
2022-12-15T10:02:51.034Z,100973.38
2022-12-15T10:06:06.170Z,100982.69
2022-12-15T10:08:39.255Z,100971.13
2022-12-15T10:11:29.454Z,100963.34
2022-12-15T10:14:12.238Z,100956.66
2022-12-15T10:16:52.713Z,100963.28
2022-12-15T10:19:32.342Z,100955.06
2022-12-15T10:22:00.108Z,100953.56
2022-12-15T10:25:07.913Z,100955.06
2022-12-15T10:27:27.048Z,100954.25
2022-12-15T10:30:01.107Z,100955.94
2022-12-15T10:32:51.445Z,100965.16
2022-12-15T10:35:23.778Z,100960.78
2022-12-15T10:37:51.444Z,100965.28
2022-12-15T10:40:20.955Z,100961.59
2022-12-15T10:42:51.332Z,100964.53
2022-12-15T10:45:40.252Z,100965.78
2022-12-15T10:48:21.399Z,100962.78
2022-12-15T10:50:50.153Z,100959.06
2022-12-15T10:53:40.865Z,100952.28
2022-12-15T10:56:09.256Z,100947.88
2022-12-15T10:58:50.261Z,100958.22
2022-12-15T11:01:21.377Z,100946.97
2022-12-15T11:03:52.752Z,100939.97
2022-12-15T11:06:27.156Z,100944.75
2022-12-15T11:08:58.021Z,100944.97
2022-12-15T11:11:47.337Z,100944.16
2022-12-15T11:14:24.549Z,100938.94
2022-12-15T11:16:57.866Z,100940.53
2022-12-15T11:19:28.512Z,100932.94
2022-12-15T11:22:01.065Z,100933.25
2022-12-15T11:24:41.394Z,100942.72
2022-12-15T11:27:20.743Z,100934.72
2022-12-15T11:30:01.081Z,100943.06
2022-12-15T11:32:33.593Z,100931.94
2022-12-15T11:35:01.070Z,100946.53
2022-12-15T11:37:46.430Z,100939.41
2022-12-15T11:40:36.344Z,100935.34
2022-12-15T11:43:18.901Z,100935.34
2022-12-15T11:45:46.357Z,100928.81
2022-12-15T11:48:21.180Z,100936.16
2022-12-15T11:50:54.389Z,100933.78
2022-12-15T11:53:46.941Z,100933.19
2022-12-15T11:56:30.976Z,100930.91
2022-12-15T11:59:19.156Z,100923.88
2022-12-15T12:02:08.090Z,100931.56
2022-12-15T12:04:54.049Z,100934.88
2022-12-15T12:07:42.661Z,100941.09
2022-12-15T12:10:10.289Z,100939.78
2022-12-15T12:12:50.804Z,100940.13
2022-12-15T12:15:32.993Z,100933.91
2022-12-15T12:18:10.792Z,100923.56
2022-12-15T12:20:44.471Z,100929.44
2022-12-15T12:23:21.453Z,100920.63
2022-12-15T12:26:04.555Z,100910.19
2022-12-15T12:28:43.989Z,100915.22
2022-12-15T12:31:39.554Z,100918.00
2022-12-15T12:34:14.938Z,100913.88
2022-12-15T12:36:45.810Z,100913.31
2022-12-15T12:39:24.317Z,100903.06
2022-12-15T12:42:01.982Z,100904.56
2022-12-15T12:44:38.719Z,100900.63
2022-12-15T12:47:21.316Z,100896.38
2022-12-15T12:49:51.401Z,100904.22
2022-12-15T12:52:32.319Z,100899.84
2022-12-15T12:55:05.901Z,100898.03
2022-12-15T12:57:41.570Z,100887.50
2022-12-15T13:00:09.042Z,100882.31
2022-12-15T13:02:38.116Z,100881.38
2022-12-15T13:05:25.999Z,100875.19
2022-12-15T13:08:07.286Z,100882.78
2022-12-15T13:10:40.766Z,100875.72
2022-12-15T13:13:17.518Z,100871.38
2022-12-15T13:15:51.259Z,100874.84
2022-12-15T13:18:24.724Z,100878.44
2022-12-15T13:20:57.166Z,100871.72
2022-12-15T13:23:24.576Z,100870.25
2022-12-15T13:26:13.411Z,100870.09
2022-12-15T13:28:45.906Z,100877.78
2022-12-15T13:31:20.738Z,100868.13
2022-12-15T13:33:51.576Z,100868.75
2022-12-15T13:36:38.431Z,100841.78
2022-12-15T13:39:26.446Z,100871.25
2022-12-15T13:44:48.592Z,100848.91
2022-12-15T13:47:17.757Z,100856.59
2022-12-15T13:50:03.603Z,100855.78
2022-12-15T13:55:39.257Z,100855.09
2022-12-15T13:58:17.434Z,100857.75
2022-12-15T14:00:59.028Z,100853.50
2022-12-15T14:03:26.882Z,100845.88
2022-12-15T14:05:58.562Z,100855.19
2022-12-15T14:08:30.102Z,100863.03
2022-12-15T14:13:54.311Z,100860.00
2022-12-15T14:16:24.516Z,100861.66
2022-12-15T14:19:15.949Z,100844.25
2022-12-15T14:21:55.517Z,100849.28
2022-12-15T14:24:39.622Z,100852.56
2022-12-15T14:27:07.939Z,100852.41
2022-12-15T14:29:35.612Z,100848.00
2022-12-15T14:32:03.706Z,100846.19
2022-12-15T14:34:37.103Z,100846.03
2022-12-15T14:37:09.969Z,100842.31
2022-12-15T14:39:43.497Z,100839.53
2022-12-15T14:42:19.777Z,100844.66
2022-12-15T14:44:52.053Z,100834.03
2022-12-15T14:47:28.503Z,100821.44
2022-12-15T14:49:58.677Z,100847.50
2022-12-15T14:52:32.133Z,100842.53
2022-12-15T14:55:02.344Z,100841.59
2022-12-15T14:57:39.106Z,100846.41
2022-12-15T15:00:49.823Z,100834.34
2022-12-15T15:06:01.476Z,100839.09
2022-12-15T15:08:32.621Z,100839.69
2022-12-15T15:11:20.253Z,100832.72
2022-12-15T15:13:48.413Z,100830.59
2022-12-15T15:16:18.853Z,100843.28
2022-12-15T15:18:52.226Z,100841.25
2022-12-15T15:21:23.864Z,100812.84
2022-12-15T15:24:21.773Z,100839.88
2022-12-15T15:26:49.499Z,100839.66
2022-12-15T15:29:40.979Z,100835.94
2022-12-15T15:32:17.677Z,100829.09
2022-12-15T15:34:47.035Z,100826.34
2022-12-15T15:37:22.244Z,100815.97
2022-12-15T15:39:51.548Z,100821.56
2022-12-15T15:42:19.170Z,100821.25
2022-12-15T15:44:46.700Z,100826.25
2022-12-15T15:47:32.135Z,100823.47
2022-12-15T15:50:00.801Z,100829.16
2022-12-15T15:52:32.002Z,100834.16
2022-12-15T15:55:00.415Z,100828.94
2022-12-15T15:57:27.930Z,100825.53
2022-12-15T15:59:55.578Z,100835.69
2022-12-15T16:02:23.488Z,100843.41
2022-12-15T16:04:51.218Z,100842.53
2022-12-15T16:07:26.638Z,100833.91
2022-12-15T16:09:55.181Z,100845.78
2022-12-15T16:12:50.823Z,100852.41
2022-12-15T16:15:21.675Z,100852.41
2022-12-15T16:17:49.326Z,100855.66
2022-12-15T16:20:19.241Z,100853.81
2022-12-15T16:22:50.948Z,100844.97
2022-12-15T16:25:28.423Z,100855.28
2022-12-15T16:27:55.952Z,100847.41
2022-12-15T16:30:26.072Z,100853.31
2022-12-15T16:32:54.668Z,100854.19
2022-12-15T16:35:27.235Z,100859.16
2022-12-15T16:37:54.796Z,100856.38
2022-12-15T16:40:28.256Z,100841.41
2022-12-15T16:43:01.299Z,100859.44
2022-12-15T16:45:31.856Z,100855.84
2022-12-15T16:47:59.683Z,100867.59
2022-12-15T16:50:37.708Z,100860.56
2022-12-15T16:53:06.025Z,100857.09
2022-12-15T16:55:39.913Z,100850.34
2022-12-15T16:58:08.085Z,100849.47
2022-12-15T17:00:36.597Z,100852.09
2022-12-15T17:03:04.780Z,100846.38
2022-12-15T17:05:34.667Z,100849.00
2022-12-15T17:08:05.523Z,100845.47
2022-12-15T17:10:34.282Z,100849.78
2022-12-15T17:13:08.438Z,100868.16
2022-12-15T17:15:39.842Z,100865.16
2022-12-15T17:18:15.020Z,100854.25
2022-12-15T17:20:43.753Z,100816.94
2022-12-15T17:23:18.470Z,100868.19
2022-12-15T17:28:37.675Z,100865.44
2022-12-15T17:31:05.332Z,100861.91
2022-12-15T17:33:35.814Z,100854.06
2022-12-15T17:36:09.500Z,100875.38
2022-12-15T17:38:37.068Z,100863.31
2022-12-15T17:41:04.652Z,100863.31
2022-12-15T17:43:35.906Z,100877.94
2022-12-15T17:46:03.983Z,100879.00
2022-12-15T17:48:31.630Z,100865.44
2022-12-15T17:50:59.922Z,100865.91
2022-12-15T17:53:27.610Z,100879.88
2022-12-15T17:55:55.335Z,100870.41
2022-12-15T17:58:25.796Z,100886.09
2022-12-15T18:00:55.746Z,100889.47
2022-12-15T18:03:24.907Z,100874.25
2022-12-15T18:05:54.214Z,100884.59
2022-12-15T18:08:25.364Z,100890.53
2022-12-15T18:10:55.661Z,100890.41
2022-12-15T18:13:30.351Z,100881.25
2022-12-15T18:16:02.766Z,100883.66
2022-12-15T18:18:30.594Z,100892.50
2022-12-15T18:21:02.520Z,100893.44
2022-12-15T18:23:32.182Z,100894.19
2022-12-15T18:26:03.175Z,100892.44
2022-12-15T18:28:34.480Z,100903.44
2022-12-15T18:31:14.753Z,100907.59
2022-12-15T18:33:42.309Z,100903.09
2022-12-15T18:36:10.477Z,100902.81
2022-12-15T18:38:38.340Z,100907.56
2022-12-15T18:41:06.946Z,100899.72
2022-12-15T18:43:36.069Z,100907.31
2022-12-15T18:46:03.818Z,100911.59
2022-12-15T18:48:34.960Z,100913.25
2022-12-15T18:51:03.680Z,100916.34
2022-12-15T18:53:35.342Z,100912.81
2022-12-15T18:56:06.044Z,100918.09
2022-12-15T18:58:39.401Z,100922.41
2022-12-15T19:01:08.377Z,100918.16
2022-12-15T19:03:38.233Z,100929.00
2022-12-15T19:06:23.949Z,100929.88
2022-12-15T19:08:53.358Z,100934.91
2022-12-15T19:11:30.954Z,100939.81
2022-12-15T19:14:04.002Z,100939.72
2022-12-15T19:16:51.655Z,100936.16
2022-12-15T19:19:36.851Z,100935.09
2022-12-15T19:22:29.983Z,100935.75
2022-12-15T19:24:58.537Z,100941.69
2022-12-15T19:27:27.137Z,100950.28
2022-12-15T19:29:55.895Z,100943.28
2022-12-15T19:32:24.150Z,100950.94
2022-12-15T19:34:51.705Z,100951.78
2022-12-15T19:37:31.548Z,100945.78
2022-12-15T19:40:01.813Z,100946.66
2022-12-15T19:42:37.731Z,100954.25
2022-12-15T19:45:32.760Z,100944.91
2022-12-15T19:48:00.992Z,100942.09
2022-12-15T19:50:36.600Z,100949.81
2022-12-15T19:53:10.835Z,100950.63
2022-12-15T19:55:38.490Z,100951.38
2022-12-15T19:58:25.257Z,100954.59
2022-12-15T20:00:55.801Z,100951.16
2022-12-15T20:03:23.647Z,100957.94
2022-12-15T20:05:52.957Z,100954.59
2022-12-15T20:08:26.541Z,100954.59
2022-12-15T20:10:55.689Z,100950.50
2022-12-15T20:13:26.427Z,100948.94
2022-12-15T20:15:55.201Z,100956.50
2022-12-15T20:18:22.883Z,100958.22
2022-12-15T20:20:51.073Z,100948.75
2022-12-15T20:23:20.451Z,100960.25
2022-12-15T20:25:50.781Z,100966.28
2022-12-15T20:28:23.292Z,100958.63
2022-12-15T20:30:51.424Z,100978.31
2022-12-15T20:33:19.344Z,100972.44
2022-12-15T20:35:49.391Z,100970.84
2022-12-15T20:38:25.153Z,100972.72
2022-12-15T20:40:54.018Z,100975.50
2022-12-15T20:43:23.400Z,100965.88
2022-12-15T20:45:59.060Z,100965.88
2022-12-15T20:48:26.848Z,100971.78
2022-12-15T20:50:54.462Z,100971.09
2022-12-15T20:53:25.280Z,100975.41
2022-12-15T20:55:55.034Z,100977.03
2022-12-15T20:58:27.010Z,100977.97
2022-12-15T21:00:55.894Z,100976.34
2022-12-15T21:03:28.355Z,100986.56
2022-12-15T21:05:56.752Z,100982.41
2022-12-15T21:08:28.473Z,100989.94
2022-12-15T21:11:00.868Z,100984.69
2022-12-15T21:13:31.308Z,100979.50
2022-12-15T21:15:59.145Z,100987.91
2022-12-15T21:19:03.911Z,100992.03
2022-12-15T21:21:26.169Z,100986.03
2022-12-15T21:23:54.642Z,100980.78
2022-12-15T21:26:23.933Z,100977.69
2022-12-15T21:28:55.565Z,100987.91
2022-12-15T21:31:23.675Z,100976.19
2022-12-15T21:33:51.444Z,100978.75
2022-12-15T21:36:21.334Z,100979.72
2022-12-15T21:38:51.906Z,100972.97
2022-12-15T21:41:22.065Z,100974.88
2022-12-15T21:43:50.815Z,100966.94
2022-12-15T21:46:26.079Z,100973.09
2022-12-15T21:49:13.940Z,100982.19
2022-12-15T21:51:44.783Z,100983.19
2022-12-15T21:54:19.392Z,100984.97
2022-12-15T21:56:48.539Z,100992.09
2022-12-15T21:59:21.659Z,100993.97
2022-12-15T22:01:49.870Z,100986.47
2022-12-15T22:04:22.128Z,100997.81
2022-12-15T22:06:50.321Z,100990.50
2022-12-15T22:09:18.968Z,100999.97
2022-12-15T22:11:49.548Z,100997.53
2022-12-15T22:14:27.233Z,100988.13
2022-12-15T22:16:55.456Z,100983.13
2022-12-15T22:19:23.351Z,100982.19
2022-12-15T22:21:52.094Z,100986.38
2022-12-15T22:24:19.833Z,100993.13
2022-12-15T22:26:49.200Z,100984.41
2022-12-15T22:29:22.496Z,100985.25
2022-12-15T22:31:51.786Z,100987.03
2022-12-15T22:34:24.606Z,101001.56
2022-12-15T22:36:52.593Z,100992.09
2022-12-15T22:39:22.485Z,101011.94
2022-12-15T22:41:53.567Z,100972.03
2022-12-15T22:44:28.429Z,100998.47
2022-12-15T22:46:58.227Z,101002.09
2022-12-15T22:49:31.195Z,101012.34
2022-12-15T22:51:59.192Z,101008.13
2022-12-15T22:54:29.353Z,101000.59
2022-12-15T22:57:05.394Z,101005.84
2022-12-15T22:59:41.154Z,101009.47
2022-12-15T23:02:10.081Z,101010.22
2022-12-15T23:04:37.813Z,101007.72
2022-12-15T23:07:10.044Z,101016.31
2022-12-15T23:09:37.810Z,101017.19
2022-12-15T23:12:04.666Z,100993.75
2022-12-15T23:14:54.742Z,101002.19
2022-12-15T23:17:22.445Z,101007.75
2022-12-15T23:19:49.960Z,101005.06
2022-12-15T23:22:18.005Z,101009.91
2022-12-15T23:24:45.829Z,100976.09
2022-12-15T23:27:13.580Z,101019.38
2022-12-15T23:29:41.123Z,101014.94
2022-12-15T23:32:08.653Z,101006.25
2022-12-15T23:34:36.177Z,101010.22
2022-12-15T23:37:03.705Z,101021.06
2022-12-15T23:39:31.592Z,101022.41
2022-12-15T23:41:59.070Z,101029.72
2022-12-15T23:44:26.609Z,101032.97
2022-12-15T23:46:54.222Z,101026.75
2022-12-15T23:49:21.805Z,101026.75
2022-12-15T23:51:49.572Z,101024.19
2022-12-15T23:54:17.089Z,101026.81
2022-12-15T23:56:44.673Z,101032.22
2022-12-15T23:59:12.233Z,101030.66
